Cutler, California
Current Conditions -  °F | °C
As of 7:35 AM on Thursday 30 Oct 2014 (Local Time) from KVIS Reporting Station
Clear Clear  
Wind Chill: 52°   Ceiling: Unl
Heat Index: 52°   Visibility: 10mi
Dew Point: 41°   Wind: 3mph
Humidity: 67%   Direction: 110°ESE
Pressure: 29.98"   Gusts: NA
Location:  36.52°N, 119.29°W
Report Text: KVIS 301435Z 11003KT 10SM CLR 11/05 A2998 RMK AO1
Loading
Personal Weather Stations






























Interactive Weather Map
Tropical Storm Tracking
New forecast layout! Learn more

10-Day Weather Forecast

Advertisements
Track Severe Weather on mobile